createdAt,value
2019-05-02T00:02:07.038Z,88.72
2019-05-02T00:04:36.513Z,88.10
2019-05-02T00:07:06.694Z,88.00
2019-05-02T00:09:37.307Z,88.56
2019-05-02T00:12:08.616Z,88.21
2019-05-02T00:14:38.766Z,87.90
2019-05-02T00:17:08.336Z,87.74
2019-05-02T00:19:37.824Z,87.68
2019-05-02T00:22:12.180Z,88.12
2019-05-02T00:24:41.051Z,87.81
2019-05-02T00:27:10.759Z,88.16
2019-05-02T00:29:40.141Z,88.46
2019-05-02T00:32:09.748Z,88.22
2019-05-02T00:34:39.074Z,88.72
2019-05-02T00:37:08.519Z,88.23
2019-05-02T00:39:37.905Z,88.60
2019-05-02T00:42:12.847Z,88.78
2019-05-02T00:44:42.108Z,89.14
2019-05-02T00:47:13.723Z,89.14
2019-05-02T00:49:43.072Z,88.90
2019-05-02T00:52:12.574Z,89.18
2019-05-02T00:54:41.901Z,89.49
2019-05-02T00:57:14.999Z,89.35
2019-05-02T00:59:43.511Z,89.74
2019-05-02T01:02:17.434Z,89.55
2019-05-02T01:04:49.671Z,89.96
2019-05-02T01:07:20.511Z,89.69
2019-05-02T01:09:50.404Z,89.68
2019-05-02T01:12:26.692Z,89.81
2019-05-02T01:14:50.787Z,89.87
2019-05-02T01:17:20.159Z,89.77
2019-05-02T01:19:51.547Z,89.77
2019-05-02T01:22:20.619Z,89.54
2019-05-02T01:24:49.943Z,89.39
2019-05-02T01:27:41.130Z,89.39
2019-05-02T01:30:19.307Z,89.65
2019-05-02T01:32:50.278Z,89.54
2019-05-02T01:35:27.049Z,89.50
2019-05-02T01:38:14.789Z,89.44
2019-05-02T01:40:48.044Z,89.59
2019-05-02T01:43:30.446Z,89.57
2019-05-02T01:45:59.924Z,89.90
2019-05-02T01:48:29.700Z,89.70
2019-05-02T01:50:59.000Z,89.70
2019-05-02T01:53:34.040Z,89.71
2019-05-02T01:55:59.517Z,89.83
2019-05-02T01:58:28.944Z,90.16
2019-05-02T02:00:58.311Z,90.07
2019-05-02T02:03:27.585Z,90.28
2019-05-02T02:05:58.004Z,90.46
2019-05-02T02:08:32.315Z,90.25
2019-05-02T02:10:58.436Z,90.61
2019-05-02T02:13:31.272Z,90.45
2019-05-02T02:16:04.448Z,90.50
2019-05-02T02:18:33.521Z,90.41
2019-05-02T02:21:07.995Z,91.16
2019-05-02T02:23:39.113Z,90.95
2019-05-02T02:26:12.048Z,91.05
2019-05-02T02:28:41.073Z,91.23
2019-05-02T02:31:10.387Z,91.00
2019-05-02T02:33:41.127Z,90.92
2019-05-02T02:36:10.736Z,90.80
2019-05-02T02:38:40.010Z,91.05
2019-05-02T02:41:13.224Z,91.12
2019-05-02T02:43:40.545Z,91.12
2019-05-02T02:46:17.165Z,91.00
2019-05-02T02:48:46.441Z,90.97
2019-05-02T02:51:23.333Z,91.09
2019-05-02T02:53:46.720Z,91.21
2019-05-02T02:56:16.099Z,91.24
2019-05-02T02:58:47.664Z,91.39
2019-05-02T03:01:27.570Z,91.24
2019-05-02T03:03:47.588Z,91.45
2019-05-02T03:06:16.933Z,91.54
2019-05-02T03:08:49.231Z,91.96
2019-05-02T03:11:23.513Z,92.12
2019-05-02T03:14:09.058Z,92.17
2019-05-02T03:16:46.195Z,92.13
2019-05-02T03:19:08.594Z,92.08
2019-05-02T03:21:39.408Z,91.78
2019-05-02T03:24:08.739Z,92.05
2019-05-02T03:26:38.037Z,92.17
2019-05-02T03:29:07.372Z,92.20
2019-05-02T03:31:37.111Z,91.95
2019-05-02T03:34:06.435Z,91.84
2019-05-02T03:36:37.199Z,91.82
2019-05-02T03:39:14.845Z,91.90
2019-05-02T03:41:38.338Z,91.83
2019-05-02T03:44:12.420Z,91.73
2019-05-02T03:46:39.257Z,92.12
2019-05-02T03:49:09.691Z,92.07
2019-05-02T03:51:39.505Z,92.05
2019-05-02T03:54:10.448Z,92.06
2019-05-02T03:56:44.839Z,92.12
2019-05-02T03:59:11.516Z,92.20
2019-05-02T04:01:41.846Z,92.23
2019-05-02T04:04:14.064Z,92.19
2019-05-02T04:06:43.347Z,92.40
2019-05-02T04:09:32.075Z,92.19
2019-05-02T04:11:58.610Z,92.22
2019-05-02T04:14:37.572Z,92.08
2019-05-02T04:16:59.804Z,92.06
2019-05-02T04:19:34.829Z,91.91
2019-05-02T04:22:01.890Z,91.92
2019-05-02T04:24:33.544Z,91.96
2019-05-02T04:27:02.860Z,92.24
2019-05-02T04:29:33.158Z,92.04
2019-05-02T04:32:04.486Z,91.99
2019-05-02T04:34:33.719Z,92.03
2019-05-02T04:37:04.051Z,92.24
2019-05-02T04:39:33.689Z,92.27
2019-05-02T04:42:13.014Z,92.25
2019-05-02T04:44:40.768Z,92.46
2019-05-02T04:47:11.099Z,92.27
2019-05-02T04:49:39.018Z,92.10
2019-05-02T04:52:11.642Z,91.87
2019-05-02T04:54:39.052Z,91.91
2019-05-02T04:57:08.818Z,91.67
2019-05-02T04:59:39.545Z,91.36
2019-05-02T05:02:09.501Z,91.24
2019-05-02T05:04:46.079Z,90.94
2019-05-02T05:07:09.845Z,90.80
2019-05-02T05:09:40.200Z,90.66
2019-05-02T05:12:12.541Z,90.52
2019-05-02T05:14:43.186Z,90.45
2019-05-02T05:17:13.987Z,89.81
2019-05-02T05:19:43.299Z,89.67
2019-05-02T05:22:12.615Z,89.36
2019-05-02T05:24:43.566Z,89.18
2019-05-02T05:27:18.160Z,88.68
2019-05-02T05:29:45.997Z,88.10
2019-05-02T05:32:15.410Z,87.79
2019-05-02T05:34:44.886Z,86.67
2019-05-02T05:37:17.131Z,86.02
2019-05-02T05:39:50.923Z,86.08
2019-05-02T05:42:17.846Z,84.30
2019-05-02T05:44:48.362Z,83.84
2019-05-02T05:47:21.291Z,81.48
2019-05-02T05:49:52.405Z,79.67
2019-05-02T05:52:20.187Z,78.35
2019-05-02T05:54:49.532Z,77.12
2019-05-02T05:57:21.122Z,76.44
2019-05-02T05:59:49.946Z,79.12
2019-05-02T06:02:19.303Z,79.35
2019-05-02T06:04:50.269Z,79.70
2019-05-02T06:07:20.058Z,78.88
2019-05-02T06:09:49.724Z,77.98
2019-05-02T06:12:19.091Z,77.30
2019-05-02T06:14:49.950Z,76.86
2019-05-02T06:17:23.122Z,77.36
2019-05-02T06:19:53.558Z,78.08
2019-05-02T06:22:24.682Z,78.39
2019-05-02T06:24:55.782Z,79.00
2019-05-02T06:27:26.114Z,79.42
2019-05-02T06:29:57.323Z,80.18
2019-05-02T06:32:26.869Z,79.21
2019-05-02T06:34:56.377Z,77.57
2019-05-02T06:37:26.340Z,75.33
2019-05-02T06:39:56.093Z,76.13
2019-05-02T06:42:27.707Z,76.62
2019-05-02T06:44:59.700Z,77.82
2019-05-02T06:47:27.526Z,78.72
2019-05-02T06:50:01.068Z,79.40
2019-05-02T06:52:32.870Z,79.43
2019-05-02T06:55:00.296Z,79.76
2019-05-02T06:57:29.706Z,79.64
2019-05-02T06:59:59.103Z,79.33
2019-05-02T07:02:33.562Z,79.74
2019-05-02T07:04:59.665Z,78.39
2019-05-02T07:07:31.064Z,77.06
2019-05-02T07:10:00.122Z,76.79
2019-05-02T07:12:29.596Z,76.40
2019-05-02T07:15:01.558Z,77.34
2019-05-02T07:17:36.453Z,75.76
2019-05-02T07:20:06.761Z,74.35
2019-05-02T07:22:38.781Z,73.25
2019-05-02T07:25:08.995Z,72.35
2019-05-02T07:27:39.357Z,71.48
2019-05-02T07:30:09.251Z,71.26
2019-05-02T07:32:38.662Z,71.57
2019-05-02T07:35:08.332Z,71.17
2019-05-02T07:37:37.694Z,70.82
2019-05-02T07:40:12.119Z,68.54
2019-05-02T07:42:41.892Z,69.55
2019-05-02T07:45:10.832Z,70.50
2019-05-02T07:47:42.369Z,68.96
2019-05-02T07:50:12.051Z,70.31
2019-05-02T07:52:41.595Z,69.27
2019-05-02T07:55:11.297Z,69.23
2019-05-02T07:57:41.476Z,68.46
2019-05-02T08:00:14.259Z,68.00
2019-05-02T08:02:43.212Z,66.32
2019-05-02T08:05:15.757Z,64.97
2019-05-02T08:07:43.930Z,63.11
2019-05-02T08:10:16.413Z,61.40
2019-05-02T08:12:44.992Z,62.10
2019-05-02T08:15:15.302Z,61.89
2019-05-02T08:17:53.338Z,60.38
2019-05-02T08:20:19.266Z,63.04
2019-05-02T08:22:50.422Z,62.37
2019-05-02T08:25:20.262Z,61.94
2019-05-02T08:27:51.251Z,61.46
2019-05-02T08:30:24.764Z,61.46
2019-05-02T08:32:55.353Z,64.04
2019-05-02T08:35:27.671Z,64.24
2019-05-02T08:37:56.249Z,63.84
2019-05-02T08:40:25.735Z,64.70
2019-05-02T08:42:55.027Z,64.93
2019-05-02T08:45:24.335Z,64.81
2019-05-02T08:47:53.832Z,65.06
2019-05-02T08:50:27.076Z,63.77
2019-05-02T08:52:54.385Z,63.40
2019-05-02T08:55:23.685Z,64.03
2019-05-02T08:57:52.963Z,62.36
2019-05-02T09:00:22.396Z,60.92
2019-05-02T09:02:51.696Z,60.39
2019-05-02T09:05:21.174Z,61.24
2019-05-02T09:07:50.709Z,61.42
2019-05-02T09:10:20.171Z,63.67
2019-05-02T09:12:49.625Z,65.61
2019-05-02T09:15:19.000Z,65.52
2019-05-02T09:17:52.890Z,65.56
2019-05-02T09:20:23.560Z,66.14
2019-05-02T09:22:55.949Z,68.43
2019-05-02T09:25:23.642Z,68.54
2019-05-02T09:27:53.148Z,68.26
2019-05-02T09:30:25.737Z,69.46
2019-05-02T09:32:57.098Z,69.32
2019-05-02T09:35:24.752Z,70.46
2019-05-02T09:37:54.057Z,70.27
2019-05-02T09:40:23.368Z,69.69
2019-05-02T09:42:57.648Z,70.41
2019-05-02T09:45:27.725Z,70.23
2019-05-02T09:48:04.518Z,70.33
2019-05-02T09:50:31.376Z,71.55
2019-05-02T09:53:01.730Z,71.69
2019-05-02T09:55:31.788Z,73.10
2019-05-02T09:58:02.702Z,75.13
2019-05-02T10:00:41.940Z,76.08
2019-05-02T10:03:12.072Z,76.84
2019-05-02T10:05:43.057Z,77.55
2019-05-02T10:08:13.938Z,78.10
2019-05-02T10:10:45.841Z,78.30
2019-05-02T10:13:14.876Z,79.02
2019-05-02T10:15:44.415Z,79.27
2019-05-02T10:18:14.898Z,79.61
2019-05-02T10:20:45.615Z,80.01
2019-05-02T10:23:19.499Z,80.45
2019-05-02T10:25:47.006Z,80.72
2019-05-02T10:28:16.458Z,81.09
2019-05-02T10:30:47.260Z,80.75
2019-05-02T10:33:16.764Z,81.16
2019-05-02T10:35:47.738Z,81.19
2019-05-02T10:38:19.722Z,81.71
2019-05-02T10:40:54.563Z,82.25
2019-05-02T10:43:22.114Z,82.34
2019-05-02T10:45:56.470Z,82.02
2019-05-02T10:48:28.170Z,82.57
2019-05-02T10:50:56.804Z,83.20
2019-05-02T10:53:26.295Z,83.86
2019-05-02T10:55:55.617Z,84.13
2019-05-02T10:58:32.009Z,83.62
2019-05-02T11:00:57.647Z,84.32
2019-05-02T11:03:32.009Z,84.82
2019-05-02T11:06:07.446Z,85.11
2019-05-02T11:08:36.607Z,85.84
2019-05-02T11:11:06.231Z,85.89
2019-05-02T11:13:38.172Z,86.17
2019-05-02T11:16:12.401Z,86.61
2019-05-02T11:18:59.631Z,86.27
2019-05-02T11:21:29.168Z,84.93
2019-05-02T11:23:58.538Z,84.40
2019-05-02T11:26:29.648Z,83.46
2019-05-02T11:28:58.959Z,81.07
2019-05-02T11:31:28.393Z,82.06
2019-05-02T11:33:57.677Z,80.78
2019-05-02T11:36:27.505Z,79.36
2019-05-02T11:39:09.064Z,79.11
2019-05-02T11:41:29.101Z,76.94
2019-05-02T11:43:59.903Z,78.20
2019-05-02T11:46:29.324Z,76.66
2019-05-02T11:48:58.807Z,79.93
2019-05-02T11:51:28.110Z,79.45
2019-05-02T11:53:59.229Z,80.40
2019-05-02T11:56:28.741Z,81.58
2019-05-02T11:58:59.309Z,82.21
2019-05-02T12:01:37.134Z,81.57
2019-05-02T12:03:59.861Z,81.03
2019-05-02T12:06:29.244Z,82.88
2019-05-02T12:08:58.576Z,82.46
2019-05-02T12:11:27.895Z,80.89
2019-05-02T12:13:57.228Z,78.36
2019-05-02T12:16:27.942Z,77.12
2019-05-02T12:19:08.471Z,77.14
2019-05-02T12:21:28.791Z,75.30
2019-05-02T12:23:58.096Z,77.26
2019-05-02T12:26:27.685Z,76.93
2019-05-02T12:28:58.613Z,78.85
2019-05-02T12:31:32.480Z,80.29
2019-05-02T12:34:02.896Z,80.14
2019-05-02T12:36:33.547Z,81.46
2019-05-02T12:39:04.299Z,82.30
2019-05-02T12:41:33.810Z,81.99
2019-05-02T12:44:03.108Z,82.35
2019-05-02T12:46:32.520Z,82.05
2019-05-02T12:49:02.860Z,82.27
2019-05-02T12:51:32.628Z,79.97
2019-05-02T12:54:02.447Z,81.31
2019-05-02T12:56:32.510Z,81.15
2019-05-02T12:59:02.509Z,83.57
2019-05-02T13:01:33.027Z,83.05
2019-05-02T13:04:07.379Z,83.51
2019-05-02T13:06:37.313Z,82.94
2019-05-02T13:09:09.837Z,81.79
2019-05-02T13:11:47.937Z,82.36
2019-05-02T13:14:19.852Z,81.77
2019-05-02T13:16:53.446Z,81.17
2019-05-02T13:19:23.683Z,81.13
2019-05-02T13:22:12.485Z,80.32
2019-05-02T13:24:46.946Z,80.89
2019-05-02T13:27:17.232Z,83.29
2019-05-02T13:29:47.415Z,84.78
2019-05-02T13:32:32.157Z,86.40
2019-05-02T13:35:09.191Z,86.03
2019-05-02T13:37:38.714Z,85.93
2019-05-02T13:40:12.414Z,85.21
2019-05-02T13:42:41.948Z,84.16
2019-05-02T13:45:13.266Z,85.54
2019-05-02T13:47:42.698Z,84.69
2019-05-02T13:50:12.977Z,84.68
2019-05-02T13:52:45.243Z,82.36
2019-05-02T13:55:15.358Z,83.58
2019-05-02T13:57:46.875Z,83.59
2019-05-02T14:00:18.182Z,83.75
2019-05-02T14:02:47.510Z,79.26
2019-05-02T14:05:16.980Z,81.17
2019-05-02T14:07:55.576Z,79.24
2019-05-02T14:10:23.126Z,78.69
2019-05-02T14:13:00.603Z,80.05
2019-05-02T14:15:32.406Z,79.24
2019-05-02T14:18:02.928Z,79.86
2019-05-02T14:20:33.056Z,80.67
2019-05-02T14:23:02.626Z,79.93
2019-05-02T14:25:32.268Z,78.69
2019-05-02T14:28:02.915Z,77.98
2019-05-02T14:30:40.044Z,77.62
2019-05-02T14:33:08.145Z,76.89
2019-05-02T14:35:37.900Z,77.74
2019-05-02T14:38:08.149Z,73.39
2019-05-02T14:40:55.776Z,74.11
2019-05-02T14:43:44.485Z,74.09
2019-05-02T14:46:13.557Z,74.93
2019-05-02T14:48:45.223Z,74.76
2019-05-02T14:51:16.773Z,76.12
2019-05-02T14:53:46.000Z,75.91
2019-05-02T14:56:16.936Z,75.03
2019-05-02T14:58:47.742Z,75.71
2019-05-02T15:01:21.523Z,76.84
2019-05-02T15:03:48.138Z,75.46
2019-05-02T15:06:17.596Z,77.27
2019-05-02T15:08:46.966Z,76.50
2019-05-02T15:11:16.238Z,73.82
2019-05-02T15:13:45.552Z,74.03
2019-05-02T15:16:17.690Z,72.26
2019-05-02T15:18:47.557Z,71.77
2019-05-02T15:21:22.858Z,70.83
2019-05-02T15:23:54.336Z,70.68
2019-05-02T15:26:26.404Z,70.90
2019-05-02T15:28:54.362Z,70.29
2019-05-02T15:31:28.435Z,67.03
2019-05-02T15:34:01.559Z,68.95
2019-05-02T15:36:28.497Z,71.45
2019-05-02T15:41:29.474Z,69.51
2019-05-02T15:43:58.765Z,70.21
2019-05-02T15:46:28.382Z,69.43
2019-05-02T15:49:01.737Z,67.50
2019-05-02T15:51:28.986Z,67.38
2019-05-02T15:54:08.111Z,69.37
2019-05-02T15:56:35.738Z,67.99
2019-05-02T15:59:06.435Z,68.13
2019-05-02T16:01:41.598Z,66.50
2019-05-02T16:04:09.663Z,68.02
2019-05-02T16:06:38.984Z,63.95
2019-05-02T16:09:08.866Z,62.89
2019-05-02T16:11:39.735Z,60.32
2019-05-02T16:14:09.047Z,62.73
2019-05-02T16:16:41.868Z,59.94
2019-05-02T16:19:14.659Z,62.18
2019-05-02T16:21:42.742Z,65.06
2019-05-02T16:24:19.446Z,65.28
2019-05-02T16:26:56.612Z,64.89
2019-05-02T16:29:28.454Z,62.07
2019-05-02T16:32:03.160Z,61.79
2019-05-02T16:34:35.436Z,58.92
2019-05-02T16:37:16.513Z,61.04
2019-05-02T16:39:49.711Z,60.91
2019-05-02T16:42:14.791Z,62.44
2019-05-02T16:44:44.629Z,59.86
2019-05-02T16:47:14.166Z,60.02
2019-05-02T16:49:47.872Z,58.75
2019-05-02T16:52:16.197Z,61.70
2019-05-02T16:54:45.870Z,63.47
2019-05-02T16:57:17.385Z,63.13
2019-05-02T16:59:47.428Z,64.42
2019-05-02T17:02:16.908Z,61.93
2019-05-02T17:04:46.222Z,62.73
2019-05-02T17:07:17.195Z,62.18
2019-05-02T17:10:08.502Z,61.95
2019-05-02T17:12:37.253Z,61.56
2019-05-02T17:15:31.106Z,61.36
2019-05-02T17:18:05.024Z,60.38
2019-05-02T17:20:31.972Z,62.99
2019-05-02T17:23:03.362Z,64.44
2019-05-02T17:25:32.462Z,63.95
2019-05-02T17:28:06.970Z,65.71
2019-05-02T17:30:39.009Z,65.24
2019-05-02T17:33:07.101Z,66.87
2019-05-02T17:35:35.934Z,68.19
2019-05-02T17:38:05.482Z,67.75
2019-05-02T17:40:34.802Z,66.95
2019-05-02T17:43:06.914Z,66.58
2019-05-02T17:45:38.491Z,66.73
2019-05-02T17:48:15.267Z,67.30
2019-05-02T17:50:59.181Z,67.19
2019-05-02T17:53:26.845Z,68.44
2019-05-02T17:55:56.224Z,68.66
2019-05-02T17:58:25.505Z,69.43
2019-05-02T18:00:57.244Z,69.32
2019-05-02T18:03:30.873Z,68.72
2019-05-02T18:05:58.524Z,70.05
2019-05-02T18:08:27.917Z,70.42
2019-05-02T18:11:00.117Z,71.40
2019-05-02T18:13:29.183Z,70.64
2019-05-02T18:15:59.421Z,71.67
2019-05-02T18:18:28.785Z,72.31
2019-05-02T18:20:58.234Z,71.37
2019-05-02T18:23:27.775Z,72.02
2019-05-02T18:26:04.547Z,72.81
2019-05-02T18:28:29.834Z,73.08
2019-05-02T18:31:04.527Z,73.83
2019-05-02T18:33:30.203Z,72.85
2019-05-02T18:35:59.466Z,72.95
2019-05-02T18:38:28.841Z,72.36
2019-05-02T18:41:00.358Z,72.22
2019-05-02T18:43:31.487Z,73.26
2019-05-02T18:46:05.934Z,72.79
2019-05-02T18:48:31.962Z,72.32
2019-05-02T18:51:01.641Z,72.88
2019-05-02T18:53:32.670Z,74.21
2019-05-02T18:56:03.629Z,73.68
2019-05-02T18:58:36.347Z,73.93
2019-05-02T19:01:08.499Z,74.47
2019-05-02T19:03:36.494Z,74.38
2019-05-02T19:06:05.804Z,75.23
2019-05-02T19:08:45.290Z,74.04
2019-05-02T19:11:11.985Z,75.08
2019-05-02T19:13:42.754Z,75.46
2019-05-02T19:16:10.008Z,75.02
2019-05-02T19:18:39.340Z,75.35
2019-05-02T19:21:09.010Z,74.15
2019-05-02T19:23:38.324Z,73.25
2019-05-02T19:26:15.055Z,73.60
2019-05-02T19:28:42.774Z,73.60
2019-05-02T19:31:11.242Z,73.36
2019-05-02T19:33:42.538Z,74.56
2019-05-02T19:36:11.363Z,73.46
2019-05-02T19:38:42.804Z,74.38
2019-05-02T19:41:12.452Z,74.00
2019-05-02T19:43:49.452Z,73.35
2019-05-02T19:46:12.919Z,73.35
2019-05-02T19:48:43.014Z,73.95
2019-05-02T19:51:18.644Z,75.38
2019-05-02T19:53:44.592Z,75.31
2019-05-02T19:56:13.903Z,74.20
2019-05-02T19:58:46.614Z,75.08
2019-05-02T20:01:17.508Z,73.55
2019-05-02T20:03:45.528Z,74.29
2019-05-02T20:06:14.983Z,76.01
2019-05-02T20:08:44.394Z,75.93
2019-05-02T20:11:13.713Z,75.91
2019-05-02T20:13:43.096Z,75.92
2019-05-02T20:16:31.906Z,77.08
2019-05-02T20:19:01.986Z,78.76
2019-05-02T20:21:38.749Z,79.87
2019-05-02T20:24:09.284Z,81.57
2019-05-02T20:26:39.002Z,82.44
2019-05-02T20:29:08.464Z,82.42
2019-05-02T20:31:37.850Z,83.42
2019-05-02T20:34:07.196Z,83.63
2019-05-02T20:36:36.497Z,83.80
2019-05-02T20:39:07.388Z,83.91
2019-05-02T20:41:37.349Z,83.70
2019-05-02T20:44:06.713Z,84.38
2019-05-02T20:46:36.081Z,84.26
2019-05-02T20:49:05.655Z,84.09
2019-05-02T20:51:36.557Z,84.18
2019-05-02T20:54:06.000Z,83.99
2019-05-02T20:56:35.538Z,83.92
2019-05-02T20:59:05.786Z,83.75
2019-05-02T21:01:35.123Z,84.03
2019-05-02T21:04:04.428Z,84.21
2019-05-02T21:06:40.776Z,83.97
2019-05-02T21:09:08.518Z,84.56
2019-05-02T21:11:41.834Z,84.07
2019-05-02T21:14:12.708Z,83.85
2019-05-02T21:16:42.034Z,83.96
2019-05-02T21:19:12.367Z,84.11
2019-05-02T21:21:42.638Z,82.84
2019-05-02T21:24:12.108Z,83.00
2019-05-02T21:26:42.126Z,83.70
2019-05-02T21:29:12.129Z,82.78
2019-05-02T21:31:42.555Z,82.02
2019-05-02T21:34:13.022Z,82.13
2019-05-02T21:36:42.612Z,81.88
2019-05-02T21:39:12.469Z,82.00
2019-05-02T21:41:42.418Z,81.85
2019-05-02T21:44:13.328Z,83.10
2019-05-02T21:46:42.666Z,83.38
2019-05-02T21:49:14.101Z,84.20
2019-05-02T21:51:51.803Z,84.87
2019-05-02T21:54:26.908Z,84.97
2019-05-02T21:57:02.605Z,86.08
2019-05-02T21:59:32.110Z,86.32
2019-05-02T22:02:02.486Z,84.57
2019-05-02T22:04:31.942Z,84.55
2019-05-02T22:07:01.632Z,85.14
2019-05-02T22:09:32.380Z,84.64
2019-05-02T22:12:01.941Z,84.24
2019-05-02T22:14:32.834Z,84.23
2019-05-02T22:17:02.848Z,84.11
2019-05-02T22:19:32.432Z,84.60
2019-05-02T22:22:01.830Z,84.55
2019-05-02T22:24:31.306Z,84.20
2019-05-02T22:27:01.957Z,83.76
2019-05-02T22:29:32.381Z,83.28
2019-05-02T22:32:03.008Z,83.67
2019-05-02T22:34:33.653Z,83.09
2019-05-02T22:37:04.518Z,83.94
2019-05-02T22:39:38.227Z,83.49
2019-05-02T22:42:07.543Z,83.72
2019-05-02T22:44:36.906Z,82.78
2019-05-02T22:47:06.204Z,83.19
2019-05-02T22:49:35.534Z,83.27
2019-05-02T22:52:04.863Z,83.15
2019-05-02T22:54:34.179Z,83.46
2019-05-02T22:57:03.466Z,83.53
2019-05-02T22:59:33.654Z,83.82
2019-05-02T23:02:02.955Z,84.05
2019-05-02T23:04:33.514Z,84.53
2019-05-02T23:07:02.828Z,84.33
2019-05-02T23:09:32.157Z,84.05
2019-05-02T23:12:02.855Z,84.47
2019-05-02T23:14:32.687Z,84.85
2019-05-02T23:17:02.339Z,85.15
2019-05-02T23:19:31.898Z,83.89
2019-05-02T23:22:02.059Z,83.15
2019-05-02T23:24:38.669Z,83.91
2019-05-02T23:27:22.424Z,83.64
2019-05-02T23:29:52.065Z,84.12
2019-05-02T23:32:23.627Z,83.44
2019-05-02T23:34:52.914Z,83.18
2019-05-02T23:37:22.307Z,83.36
2019-05-02T23:39:52.243Z,83.87
2019-05-02T23:42:21.989Z,83.04
2019-05-02T23:44:51.916Z,83.07
2019-05-02T23:47:22.505Z,82.63
2019-05-02T23:49:52.204Z,81.94
2019-05-02T23:52:22.446Z,82.91
2019-05-02T23:54:53.046Z,82.16
2019-05-02T23:57:22.948Z,81.48
2019-05-02T23:59:52.418Z,81.92
